Brookhaven Weather

Current Time: 11:05 Zulu

HWV METARs

Local Time Temperature Dew Point Wind Direction Wind Speed Wind Gust Sky Vis.
5/27/2018 11:28:00 AM 16.1° c 16.1° c variable 3 kt - OVC 900 ft AGL 1.75 sm
5/27/2018 11:12:00 AM 16.1° c 16.1° c variable 3 kt - OVC 900 ft AGL 3.0 sm
5/27/2018 10:56:00 AM 16.7° c 16.1° c variable 3 kt - OVC 1000 ft AGL 4.0 sm
5/27/2018 9:56:00 AM 17.8° c 15.6° c 80° 7 kt - BKN 1300 ft AGL 10.0 sm
5/27/2018 8:56:00 AM 18.3° c 15.6° c variable 5 kt 15kt CLR 10.0 sm
5/27/2018 7:56:00 AM 18.9° c 16.1° c 50° 7 kt - CLR 9.0 sm

ISP TAF:

KISP 270934Z 2710/2806 07012G18KT P6SM BKN150 
FM271100 07012KT 5SM -RA BKN015 TEMPO 2713/2714 BKN009 
FM271400 07011KT 4SM -RA OVC009 
FM271800 05012KT 4SM BR VCSH OVC009
Weather data provided by aviationweather.gov. Pilots must verify weather before flying.